createdAt,value
2018-06-25T00:00:20.812Z,-77.00
2018-06-25T00:01:15.922Z,-77.00
2018-06-25T00:02:15.851Z,-77.00
2018-06-25T00:03:15.862Z,-77.00
2018-06-25T00:04:40.772Z,-77.00
2018-06-25T00:05:15.884Z,-77.00
2018-06-25T00:06:32.769Z,-76.00
2018-06-25T00:07:15.853Z,-77.00
2018-06-25T00:08:21.765Z,-77.00
2018-06-25T00:09:15.896Z,-77.00
2018-06-25T00:10:17.953Z,-77.00
2018-06-25T00:11:15.911Z,-77.00
2018-06-25T00:12:40.808Z,-77.00
2018-06-25T00:13:15.955Z,-77.00
2018-06-25T00:14:15.982Z,-76.00
2018-06-25T00:15:22.834Z,-76.00
2018-06-25T00:16:15.988Z,-77.00
2018-06-25T00:17:30.818Z,-76.00
2018-06-25T00:18:16.022Z,-77.00
2018-06-25T00:19:18.145Z,-77.00
2018-06-25T00:20:16.059Z,-77.00
2018-06-25T00:21:21.757Z,-76.00
2018-06-25T00:22:16.072Z,-78.00
2018-06-25T00:23:17.135Z,-78.00
2018-06-25T00:24:16.110Z,-78.00
2018-06-25T00:25:16.150Z,-79.00
2018-06-25T00:26:16.142Z,-80.00
2018-06-25T00:27:16.119Z,-80.00
2018-06-25T00:28:16.141Z,-80.00
2018-06-25T00:29:16.151Z,-80.00
2018-06-25T00:30:16.291Z,-80.00
2018-06-25T00:31:16.188Z,-80.00
2018-06-25T00:32:16.205Z,-80.00
2018-06-25T00:33:16.275Z,-80.00
2018-06-25T00:34:16.244Z,-80.00
2018-06-25T00:35:16.288Z,-80.00
2018-06-25T00:36:16.242Z,-80.00
2018-06-25T00:37:16.323Z,-80.00
2018-06-25T00:38:16.263Z,-79.00
2018-06-25T00:39:16.327Z,-80.00
2018-06-25T00:40:16.357Z,-77.00
2018-06-25T00:41:37.422Z,-77.00
2018-06-25T00:42:16.332Z,-80.00
2018-06-25T00:43:16.318Z,-80.00
2018-06-25T00:44:16.482Z,-80.00
2018-06-25T00:45:16.363Z,-80.00
2018-06-25T00:46:17.389Z,-80.00
2018-06-25T00:47:16.397Z,-80.00
2018-06-25T00:48:16.463Z,-80.00
2018-06-25T00:49:16.385Z,-80.00
2018-06-25T00:50:16.486Z,-80.00
2018-06-25T00:51:16.449Z,-80.00
2018-06-25T00:52:16.485Z,-80.00
2018-06-25T00:53:16.434Z,-80.00
2018-06-25T00:54:16.484Z,-80.00
2018-06-25T00:55:16.465Z,-80.00
2018-06-25T00:56:17.562Z,-80.00
2018-06-25T00:57:16.489Z,-80.00
2018-06-25T00:58:16.521Z,-80.00
2018-06-25T00:59:16.536Z,-80.00
2018-06-25T01:00:18.606Z,-80.00
2018-06-25T01:01:16.551Z,-80.00
2018-06-25T01:02:16.677Z,-80.00
2018-06-25T01:03:16.585Z,-80.00
2018-06-25T01:04:16.688Z,-80.00
2018-06-25T01:05:16.618Z,-80.00
2018-06-25T01:06:16.629Z,-80.00
2018-06-25T01:07:16.652Z,-80.00
2018-06-25T01:08:16.636Z,-80.00
2018-06-25T01:09:16.633Z,-80.00
2018-06-25T01:10:16.659Z,-80.00
2018-06-25T01:11:16.654Z,-80.00
2018-06-25T01:12:16.742Z,-80.00
2018-06-25T01:13:16.705Z,-80.00
2018-06-25T01:14:16.744Z,-80.00
2018-06-25T01:15:16.768Z,-80.00
2018-06-25T01:16:16.726Z,-80.00
2018-06-25T01:17:16.778Z,-80.00
2018-06-25T01:18:16.758Z,-80.00
2018-06-25T01:19:16.774Z,-80.00
2018-06-25T01:20:16.766Z,-80.00
2018-06-25T01:21:17.804Z,-80.00
2018-06-25T01:22:16.786Z,-80.00
2018-06-25T01:23:16.914Z,-80.00
2018-06-25T01:24:16.812Z,-80.00
2018-06-25T01:25:16.927Z,-80.00
2018-06-25T01:26:16.868Z,-80.00
2018-06-25T01:27:16.853Z,-80.00
2018-06-25T01:28:16.947Z,-80.00
2018-06-25T01:29:16.877Z,-80.00
2018-06-25T01:30:16.950Z,-80.00
2018-06-25T01:31:16.939Z,-80.00
2018-06-25T01:32:17.029Z,-80.00
2018-06-25T01:33:16.933Z,-80.00
2018-06-25T01:34:16.989Z,-80.00
2018-06-25T01:35:16.967Z,-80.00
2018-06-25T01:36:17.015Z,-80.00
2018-06-25T01:37:16.972Z,-80.00
2018-06-25T01:38:21.837Z,-80.00
2018-06-25T01:39:17.035Z,-80.00
2018-06-25T01:40:17.036Z,-80.00
2018-06-25T01:41:17.019Z,-80.00
2018-06-25T01:42:22.798Z,-80.00
2018-06-25T01:43:17.048Z,-80.00
2018-06-25T01:44:17.167Z,-80.00
2018-06-25T01:45:17.073Z,-80.00
2018-06-25T01:46:17.180Z,-80.00
2018-06-25T01:47:17.086Z,-80.00
2018-06-25T01:48:17.182Z,-80.00
2018-06-25T01:49:17.123Z,-80.00
2018-06-25T01:50:18.235Z,-80.00
2018-06-25T01:51:17.156Z,-80.00
2018-06-25T01:52:17.210Z,-80.00
2018-06-25T01:53:17.166Z,-80.00
2018-06-25T01:54:17.237Z,-80.00
2018-06-25T01:55:17.187Z,-80.00
2018-06-25T01:56:17.275Z,-80.00
2018-06-25T01:57:17.233Z,-80.00
2018-06-25T01:58:18.271Z,-80.00
2018-06-25T01:59:17.237Z,-80.00
2018-06-25T02:00:17.278Z,-80.00
2018-06-25T02:01:17.262Z,-80.00
2018-06-25T02:02:17.282Z,-79.00
2018-06-25T02:03:17.306Z,-80.00
2018-06-25T02:04:17.290Z,-80.00
2018-06-25T02:05:17.411Z,-80.00
2018-06-25T02:06:17.344Z,-80.00
2018-06-25T02:07:17.336Z,-80.00
2018-06-25T02:08:18.553Z,-80.00
2018-06-25T02:09:17.552Z,-80.00
2018-06-25T02:10:17.579Z,-80.00
2018-06-25T02:11:17.655Z,-80.00
2018-06-25T02:12:17.661Z,-80.00
2018-06-25T02:13:17.778Z,-80.00
2018-06-25T02:14:17.676Z,-80.00
2018-06-25T02:15:17.805Z,-80.00
2018-06-25T02:16:17.767Z,-80.00
2018-06-25T02:17:18.811Z,-80.00
2018-06-25T02:18:17.774Z,-80.00
2018-06-25T02:19:17.819Z,-80.00
2018-06-25T02:20:17.490Z,-80.00
2018-06-25T02:21:18.563Z,-80.00
2018-06-25T02:22:17.535Z,-80.00
2018-06-25T02:23:17.632Z,-80.00
2018-06-25T02:24:17.525Z,-80.00
2018-06-25T02:25:17.660Z,-80.00
2018-06-25T02:26:17.580Z,-80.00
2018-06-25T02:27:17.727Z,-80.00
2018-06-25T02:28:17.583Z,-80.00
2018-06-25T02:29:17.685Z,-80.00
2018-06-25T02:30:17.618Z,-80.00
2018-06-25T02:31:18.728Z,-80.00
2018-06-25T02:32:17.645Z,-80.00
2018-06-25T02:33:17.695Z,-80.00
2018-06-25T02:34:17.649Z,-80.00
2018-06-25T02:35:17.734Z,-80.00
2018-06-25T02:36:17.721Z,-85.00
2018-06-25T02:57:51.129Z,-80.00
2018-06-25T02:58:49.658Z,-80.00
2018-06-25T02:59:49.594Z,-80.00
2018-06-25T03:00:49.618Z,-80.00
2018-06-25T03:01:49.707Z,-80.00
2018-06-25T03:02:49.652Z,-80.00
2018-06-25T03:03:49.787Z,-80.00
2018-06-25T03:04:49.662Z,-80.00
2018-06-25T03:05:49.711Z,-80.00
2018-06-25T03:06:49.699Z,-80.00
2018-06-25T03:07:49.835Z,-80.00
2018-06-25T03:08:49.724Z,-80.00
2018-06-25T03:09:49.772Z,-80.00
2018-06-25T03:10:50.761Z,-80.00
2018-06-25T03:11:49.769Z,-78.00
2018-06-25T03:12:49.762Z,-77.00
2018-06-25T03:13:49.852Z,-78.00
2018-06-25T03:14:49.791Z,-77.00
2018-06-25T03:15:49.799Z,-77.00
2018-06-25T03:16:49.870Z,-77.00
2018-06-25T03:17:49.817Z,-77.00
2018-06-25T03:18:49.840Z,-77.00
2018-06-25T03:19:49.849Z,-76.00
2018-06-25T03:20:49.863Z,-77.00
2018-06-25T03:21:49.895Z,-77.00
2018-06-25T03:22:49.868Z,-77.00
2018-06-25T03:23:50.057Z,-77.00
2018-06-25T03:24:49.936Z,-77.00
2018-06-25T03:25:50.029Z,-76.00
2018-06-25T03:26:49.945Z,-77.00
2018-06-25T03:27:49.943Z,-77.00
2018-06-25T03:28:50.040Z,-76.00
2018-06-25T03:29:49.983Z,-77.00
2018-06-25T03:30:50.366Z,-76.00
2018-06-25T03:31:50.071Z,-77.00
2018-06-25T03:32:50.100Z,-76.00
2018-06-25T03:33:50.020Z,-77.00
2018-06-25T03:34:50.051Z,-76.00
2018-06-25T03:35:51.134Z,-76.00
2018-06-25T03:36:50.090Z,-76.00
2018-06-25T03:37:50.399Z,-77.00
2018-06-25T03:38:50.064Z,-76.00
2018-06-25T03:39:50.108Z,-76.00
2018-06-25T03:40:50.131Z,-76.00
2018-06-25T03:41:50.127Z,-76.00
2018-06-25T03:42:50.148Z,-76.00
2018-06-25T03:43:50.151Z,-76.00
2018-06-25T03:44:50.158Z,-76.00
2018-06-25T03:45:51.217Z,-76.00
2018-06-25T03:46:50.303Z,-76.00
2018-06-25T03:47:50.411Z,-76.00
2018-06-25T03:48:50.192Z,-75.00
2018-06-25T03:49:50.208Z,-75.00
2018-06-25T03:50:50.232Z,-75.00
2018-06-25T03:51:50.248Z,-75.00
2018-06-25T03:52:50.253Z,-75.00
2018-06-25T03:53:50.345Z,-75.00
2018-06-25T03:54:50.288Z,-75.00
2018-06-25T03:55:50.278Z,-75.00
2018-06-25T03:56:50.315Z,-75.00
2018-06-25T03:57:50.304Z,-75.00
2018-06-25T03:58:50.320Z,-75.00
2018-06-25T03:59:50.357Z,-75.00
2018-06-25T04:00:50.352Z,-75.00
2018-06-25T04:01:50.368Z,-75.00
2018-06-25T04:02:50.362Z,-75.00
2018-06-25T04:03:50.377Z,-75.00
2018-06-25T04:04:50.399Z,-75.00
2018-06-25T04:05:50.437Z,-74.00
2018-06-25T04:06:50.422Z,-75.00
2018-06-25T04:07:50.510Z,-75.00
2018-06-25T04:08:50.440Z,-75.00
2018-06-25T04:09:50.522Z,-75.00
2018-06-25T04:10:50.460Z,-75.00
2018-06-25T04:11:50.542Z,-75.00
2018-06-25T04:12:50.502Z,-75.00
2018-06-25T04:13:50.543Z,-75.00
2018-06-25T04:14:50.501Z,-74.00
2018-06-25T04:15:50.580Z,-75.00
2018-06-25T04:16:50.538Z,-75.00
2018-06-25T04:17:50.589Z,-75.00
2018-06-25T04:18:50.561Z,-75.00
2018-06-25T04:19:50.606Z,-75.00
2018-06-25T04:20:50.581Z,-75.00
2018-06-25T04:21:50.705Z,-75.00
2018-06-25T04:22:50.606Z,-75.00
2018-06-25T04:23:50.731Z,-75.00
2018-06-25T04:24:50.637Z,-75.00
2018-06-25T04:25:50.744Z,-75.00
2018-06-25T04:26:50.655Z,-75.00
2018-06-25T04:27:51.780Z,-75.00
2018-06-25T04:28:50.697Z,-75.00
2018-06-25T04:29:50.768Z,-75.00
2018-06-25T04:30:50.712Z,-75.00
2018-06-25T04:31:50.788Z,-75.00
2018-06-25T04:32:50.721Z,-75.00
2018-06-25T04:33:50.803Z,-75.00
2018-06-25T04:34:50.735Z,-75.00
2018-06-25T04:35:50.812Z,-75.00
2018-06-25T04:36:50.764Z,-75.00
2018-06-25T04:37:51.851Z,-75.00
2018-06-25T04:38:50.791Z,-75.00
2018-06-25T04:39:50.829Z,-75.00
2018-06-25T04:40:50.818Z,-75.00
2018-06-25T04:41:50.940Z,-75.00
2018-06-25T04:42:50.849Z,-75.00
2018-06-25T04:43:50.939Z,-75.00
2018-06-25T04:44:50.855Z,-75.00
2018-06-25T04:45:50.971Z,-75.00
2018-06-25T04:46:50.888Z,-75.00
2018-06-25T04:47:50.981Z,-75.00
2018-06-25T04:48:50.909Z,-75.00
2018-06-25T04:49:50.988Z,-75.00
2018-06-25T04:50:50.953Z,-75.00
2018-06-25T04:51:51.003Z,-75.00
2018-06-25T04:52:50.960Z,-75.00
2018-06-25T04:53:51.042Z,-75.00
2018-06-25T04:54:50.982Z,-75.00
2018-06-25T04:55:51.051Z,-75.00
2018-06-25T04:56:50.998Z,-75.00
2018-06-25T04:57:51.064Z,-75.00
2018-06-25T04:58:51.034Z,-75.00
2018-06-25T04:59:51.124Z,-75.00
2018-06-25T05:00:51.075Z,-75.00
2018-06-25T05:01:51.140Z,-75.00
2018-06-25T05:02:51.070Z,-75.00
2018-06-25T05:03:51.179Z,-75.00
2018-06-25T05:04:51.108Z,-75.00
2018-06-25T05:05:51.179Z,-75.00
2018-06-25T05:06:51.129Z,-75.00
2018-06-25T05:07:51.201Z,-75.00
2018-06-25T05:08:51.199Z,-75.00
2018-06-25T05:09:51.189Z,-75.00
2018-06-25T05:10:51.209Z,-75.00
2018-06-25T05:11:51.207Z,-75.00
2018-06-25T05:12:51.190Z,-75.00
2018-06-25T05:13:51.225Z,-75.00
2018-06-25T05:14:51.216Z,-75.00
2018-06-25T05:15:51.361Z,-75.00
2018-06-25T05:16:51.236Z,-75.00
2018-06-25T05:17:51.344Z,-75.00
2018-06-25T05:18:51.271Z,-75.00
2018-06-25T05:19:51.368Z,-75.00
2018-06-25T05:20:51.304Z,-75.00
2018-06-25T05:21:51.392Z,-75.00
2018-06-25T05:22:51.313Z,-75.00
2018-06-25T05:23:51.386Z,-75.00
2018-06-25T05:24:51.334Z,-75.00
2018-06-25T05:25:51.416Z,-75.00
2018-06-25T05:26:51.370Z,-75.00
2018-06-25T05:27:51.450Z,-75.00
2018-06-25T05:28:51.374Z,-75.00
2018-06-25T05:29:51.423Z,-75.00
2018-06-25T05:30:51.419Z,-76.00
2018-06-25T05:31:51.452Z,-75.00
2018-06-25T05:32:51.462Z,-75.00
2018-06-25T05:33:51.687Z,-84.00
2018-06-25T05:34:51.480Z,-84.00
2018-06-25T05:35:51.590Z,-85.00
2018-06-25T05:36:51.500Z,-84.00
2018-06-25T05:37:53.564Z,-84.00
2018-06-25T05:38:51.552Z,-84.00
2018-06-25T05:40:12.708Z,-85.00
2018-06-25T05:40:51.565Z,-84.00
2018-06-25T05:41:51.567Z,-84.00
2018-06-25T05:42:58.282Z,-85.00
2018-06-25T05:43:51.655Z,-84.00
2018-06-25T05:44:56.315Z,-84.00
2018-06-25T05:45:51.640Z,-85.00
2018-06-25T05:47:21.245Z,-84.00
2018-06-25T05:47:51.629Z,-84.00
2018-06-25T05:48:51.667Z,-84.00
2018-06-25T05:49:56.330Z,-85.00
2018-06-25T05:50:51.766Z,-85.00
2018-06-25T05:51:52.762Z,-84.00
2018-06-25T05:52:51.682Z,-85.00
2018-06-25T07:33:34.117Z,-80.00
2018-06-25T07:34:32.398Z,-81.00
2018-06-25T07:35:32.333Z,-80.00
2018-06-25T07:36:33.454Z,-80.00
2018-06-25T07:37:32.359Z,-80.00
2018-06-25T07:38:32.341Z,-80.00
2018-06-25T07:39:32.366Z,-80.00
2018-06-25T07:40:32.380Z,-80.00
2018-06-25T07:41:32.407Z,-80.00
2018-06-25T07:42:32.397Z,-80.00
2018-06-25T07:43:32.429Z,-80.00
2018-06-25T07:44:32.461Z,-80.00
2018-06-25T07:45:32.468Z,-80.00
2018-06-25T07:46:32.481Z,-80.00
2018-06-25T07:47:32.511Z,-80.00
2018-06-25T07:48:32.496Z,-80.00
2018-06-25T07:49:32.508Z,-80.00
2018-06-25T07:50:32.530Z,-80.00
2018-06-25T07:51:32.541Z,-80.00
2018-06-25T07:52:32.566Z,-79.00
2018-06-25T07:53:32.604Z,-80.00
2018-06-25T07:54:32.578Z,-80.00
2018-06-25T07:55:32.585Z,-80.00
2018-06-25T07:56:32.594Z,-80.00
2018-06-25T07:57:32.603Z,-79.00
2018-06-25T07:58:32.611Z,-78.00
2018-06-25T07:59:32.610Z,-78.00
2018-06-25T08:00:32.786Z,-83.00
2018-06-25T08:01:32.667Z,-80.00
2018-06-25T08:02:32.661Z,-78.00
2018-06-25T08:03:32.792Z,-78.00
2018-06-25T08:04:32.717Z,-78.00
2018-06-25T08:05:32.766Z,-78.00
2018-06-25T08:06:32.710Z,-78.00
2018-06-25T08:07:32.770Z,-78.00
2018-06-25T08:08:32.733Z,-78.00
2018-06-25T08:09:32.824Z,-78.00
2018-06-25T08:10:32.768Z,-77.00
2018-06-25T08:11:32.814Z,-78.00
2018-06-25T08:12:32.775Z,-78.00
2018-06-25T08:13:32.826Z,-78.00
2018-06-25T08:14:32.802Z,-78.00
2018-06-25T08:15:32.940Z,-78.00
2018-06-25T08:16:32.893Z,-78.00
2018-06-25T08:17:32.932Z,-77.00
2018-06-25T08:18:32.861Z,-78.00
2018-06-25T08:19:32.973Z,-78.00
2018-06-25T08:20:32.918Z,-78.00
2018-06-25T08:21:32.913Z,-77.00
2018-06-25T08:22:33.201Z,-74.00
2018-06-25T08:23:33.273Z,-78.00
2018-06-25T08:24:32.941Z,-77.00
2018-06-25T08:25:33.001Z,-77.00
2018-06-25T08:26:32.952Z,-78.00
2018-06-25T08:27:33.026Z,-78.00
2018-06-25T08:28:32.979Z,-78.00
2018-06-25T08:29:34.044Z,-78.00
2018-06-25T08:30:33.017Z,-78.00
2018-06-25T08:31:34.056Z,-78.00
2018-06-25T08:32:33.035Z,-78.00
2018-06-25T08:33:33.142Z,-78.00
2018-06-25T08:34:33.046Z,-78.00
2018-06-25T08:35:33.150Z,-78.00
2018-06-25T08:36:33.078Z,-78.00
2018-06-25T08:37:33.211Z,-77.00
2018-06-25T08:38:33.102Z,-78.00
2018-06-25T08:39:34.244Z,-78.00
2018-06-25T08:40:33.132Z,-78.00
2018-06-25T08:41:33.272Z,-79.00
2018-06-25T08:42:33.164Z,-78.00
2018-06-25T08:43:33.200Z,-78.00
2018-06-25T08:44:33.192Z,-78.00
2018-06-25T08:45:33.196Z,-78.00
2018-06-25T08:46:33.205Z,-78.00
2018-06-25T08:47:33.290Z,-78.00
2018-06-25T08:48:33.409Z,-78.00
2018-06-25T08:49:33.239Z,-78.00
2018-06-25T08:50:33.259Z,-77.00
2018-06-25T08:51:33.373Z,-83.00
2018-06-25T08:52:33.368Z,-85.00
2018-06-25T12:07:26.159Z,-78.00
2018-06-25T12:08:26.095Z,-77.00
2018-06-25T12:09:27.293Z,-79.00
2018-06-25T12:10:26.249Z,-78.00
2018-06-25T12:11:27.265Z,-78.00
2018-06-25T12:12:26.185Z,-79.00
2018-06-25T12:13:26.199Z,-78.00
2018-06-25T12:14:26.190Z,-77.00
2018-06-25T12:15:26.168Z,-78.00
2018-06-25T12:16:28.259Z,-76.00
2018-06-25T12:17:26.297Z,-79.00
2018-06-25T12:18:26.204Z,-78.00
2018-06-25T12:19:26.291Z,-79.00
2018-06-25T12:20:26.372Z,-79.00
2018-06-25T12:21:26.257Z,-79.00
2018-06-25T12:22:26.375Z,-80.00
2018-06-25T12:23:26.274Z,-78.00
2018-06-25T12:24:26.394Z,-78.00
2018-06-25T12:25:26.371Z,-76.00
2018-06-25T12:26:26.429Z,-77.00
2018-06-25T12:27:26.342Z,-78.00
2018-06-25T12:28:26.407Z,-77.00
2018-06-25T12:29:26.400Z,-77.00
2018-06-25T12:30:31.125Z,-78.00
2018-06-25T12:31:26.406Z,-78.00
2018-06-25T12:32:26.414Z,-79.00
2018-06-25T12:33:26.447Z,-77.00
2018-06-25T12:34:26.430Z,-78.00
2018-06-25T12:35:26.449Z,-78.00
2018-06-25T12:36:31.089Z,-77.00
2018-06-25T12:37:26.501Z,-78.00
2018-06-25T12:38:26.515Z,-78.00
2018-06-25T12:39:26.593Z,-78.00
2018-06-25T12:40:26.535Z,-78.00
2018-06-25T12:41:26.640Z,-77.00
2018-06-25T12:42:26.769Z,-79.00
2018-06-25T12:43:26.585Z,-79.00
2018-06-25T12:44:31.638Z,-79.00
2018-06-25T12:45:26.628Z,-79.00
2018-06-25T12:46:33.626Z,-79.00
2018-06-25T12:47:26.655Z,-78.00
2018-06-25T12:48:26.815Z,-78.00
2018-06-25T12:49:26.689Z,-78.00
2018-06-25T12:50:27.815Z,-78.00
2018-06-25T12:51:26.691Z,-77.00
2018-06-25T12:52:26.908Z,-78.00
2018-06-25T12:53:26.744Z,-78.00
2018-06-25T12:54:27.840Z,-79.00
2018-06-25T12:55:26.785Z,-77.00
2018-06-25T12:56:28.916Z,-79.00
2018-06-25T12:57:26.798Z,-79.00
2018-06-25T12:58:27.990Z,-79.00
2018-06-25T12:59:26.808Z,-78.00
2018-06-25T13:00:27.952Z,-78.00
2018-06-25T13:01:33.317Z,-78.00
2018-06-25T13:02:33.261Z,-79.00
2018-06-25T13:03:33.382Z,-78.00
2018-06-25T13:04:33.314Z,-79.00
2018-06-25T13:05:33.289Z,-81.00
2018-06-25T13:06:33.377Z,-79.00
2018-06-25T13:07:33.395Z,-79.00
2018-06-25T13:08:33.359Z,-81.00
2018-06-25T13:09:33.511Z,-82.00
2018-06-25T13:10:33.349Z,-82.00
2018-06-25T13:11:34.458Z,-82.00
2018-06-25T13:12:33.379Z,-83.00
2018-06-25T13:13:34.526Z,-82.00
2018-06-25T13:14:33.432Z,-82.00
2018-06-25T13:15:33.576Z,-83.00
2018-06-25T13:16:33.486Z,-83.00
2018-06-25T13:17:33.482Z,-82.00
2018-06-25T13:18:54.579Z,-82.00
2018-06-25T13:19:33.498Z,-82.00
2018-06-25T13:20:35.727Z,-82.00
2018-06-25T13:21:33.533Z,-82.00
2018-06-25T13:22:39.177Z,-83.00
2018-06-25T13:23:33.592Z,-83.00
2018-06-25T13:24:44.192Z,-82.00
2018-06-25T13:25:33.611Z,-83.00
2018-06-25T13:26:33.760Z,-83.00
2018-06-25T13:27:33.637Z,-82.00
2018-06-25T13:28:44.744Z,-82.00
2018-06-25T13:29:33.707Z,-82.00
2018-06-25T13:30:44.759Z,-80.00
2018-06-25T13:31:33.678Z,-81.00
2018-06-25T13:32:39.747Z,-83.00
2018-06-25T13:33:33.695Z,-81.00
2018-06-25T13:34:39.650Z,-81.00
2018-06-25T13:35:33.733Z,-81.00
2018-06-25T13:36:44.684Z,-81.00
2018-06-25T13:37:33.767Z,-81.00
2018-06-25T13:38:33.973Z,-81.00
2018-06-25T13:39:33.865Z,-81.00
2018-06-25T13:40:35.963Z,-82.00
2018-06-25T13:41:33.806Z,-81.00
2018-06-25T13:42:34.017Z,-82.00
2018-06-25T13:43:33.900Z,-83.00
2018-06-25T13:44:34.021Z,-83.00
2018-06-25T13:45:33.916Z,-82.00
2018-06-25T13:46:35.064Z,-82.00
2018-06-25T13:47:33.954Z,-83.00
2018-06-25T13:48:34.000Z,-81.00
2018-06-25T13:49:33.972Z,-83.00
2018-06-25T13:50:38.735Z,-82.00
2018-06-25T13:51:33.989Z,-83.00
2018-06-25T13:52:44.868Z,-84.00
2018-06-25T13:53:34.043Z,-83.00
2018-06-25T13:54:38.677Z,-82.00
2018-06-25T13:55:34.071Z,-82.00
2018-06-25T14:17:28.013Z,-77.00
2018-06-25T14:18:26.088Z,-77.00
2018-06-25T14:19:26.109Z,-76.00
2018-06-25T14:20:26.101Z,-77.00
2018-06-25T14:21:26.112Z,-76.00
2018-06-25T14:22:26.200Z,-78.00
2018-06-25T14:23:26.139Z,-77.00
2018-06-25T14:24:26.229Z,-77.00
2018-06-25T14:25:26.188Z,-77.00
2018-06-25T14:26:26.383Z,-77.00
2018-06-25T14:27:26.235Z,-78.00
2018-06-25T14:28:28.326Z,-77.00
2018-06-25T14:29:26.276Z,-77.00
2018-06-25T14:30:26.290Z,-77.00
2018-06-25T14:31:26.277Z,-77.00
2018-06-25T14:32:26.287Z,-76.00
2018-06-25T14:33:26.295Z,-77.00
2018-06-25T14:34:26.316Z,-77.00
2018-06-25T14:35:26.327Z,-77.00
2018-06-25T14:36:26.356Z,-77.00
2018-06-25T14:37:26.529Z,-78.00
2018-06-25T14:38:26.384Z,-75.00
2018-06-25T14:39:26.388Z,-77.00
2018-06-25T14:40:27.645Z,-77.00
2018-06-25T14:41:26.444Z,-77.00
2018-06-25T14:42:26.584Z,-77.00
2018-06-25T14:43:26.457Z,-77.00
2018-06-25T14:44:26.523Z,-77.00
2018-06-25T14:45:26.494Z,-77.00
2018-06-25T14:46:26.601Z,-77.00
2018-06-25T14:47:26.514Z,-77.00
2018-06-25T14:48:26.669Z,-77.00
2018-06-25T14:49:26.538Z,-77.00
2018-06-25T14:50:26.570Z,-77.00
2018-06-25T14:51:26.598Z,-77.00
2018-06-25T14:52:26.619Z,-77.00
2018-06-25T14:53:26.614Z,-77.00
2018-06-25T14:54:26.639Z,-77.00
2018-06-25T14:55:26.680Z,-77.00
2018-06-25T14:56:26.853Z,-76.00
2018-06-25T14:57:26.755Z,-78.00
2018-06-25T14:58:26.739Z,-77.00
2018-06-25T14:59:26.699Z,-78.00
2018-06-25T15:00:26.730Z,-77.00
2018-06-25T15:01:26.783Z,-77.00
2018-06-25T15:02:26.773Z,-77.00
2018-06-25T15:03:26.771Z,-78.00
2018-06-25T15:04:26.914Z,-77.00
2018-06-25T15:05:26.805Z,-77.00
2018-06-25T15:06:26.903Z,-77.00
2018-06-25T15:07:26.824Z,-77.00
2018-06-25T15:08:26.899Z,-77.00
2018-06-25T15:09:26.898Z,-78.00
2018-06-25T15:10:26.906Z,-77.00
2018-06-25T15:11:26.893Z,-78.00
2018-06-25T15:12:32.591Z,-78.00
2018-06-25T15:13:26.942Z,-77.00
2018-06-25T15:14:27.037Z,-78.00
2018-06-25T15:15:26.954Z,-79.00
2018-06-25T15:16:27.058Z,-79.00
2018-06-25T15:17:27.012Z,-79.00
2018-06-25T15:18:27.074Z,-79.00
2018-06-25T15:19:27.012Z,-79.00
2018-06-25T15:20:27.085Z,-79.00
2018-06-25T15:21:27.038Z,-79.00
2018-06-25T15:22:27.082Z,-78.00
2018-06-25T15:23:27.115Z,-78.00
2018-06-25T15:24:27.095Z,-79.00
2018-06-25T15:25:27.102Z,-78.00
2018-06-25T15:26:27.202Z,-78.00
2018-06-25T15:27:27.146Z,-79.00
2018-06-25T15:28:27.140Z,-79.00
2018-06-25T15:29:27.158Z,-79.00
2018-06-25T15:30:27.242Z,-78.00
2018-06-25T15:31:27.201Z,-78.00
2018-06-25T15:32:27.257Z,-79.00
2018-06-25T15:33:27.230Z,-79.00
2018-06-25T15:34:29.280Z,-78.00
2018-06-25T15:35:27.262Z,-79.00
2018-06-25T15:36:27.385Z,-80.00
2018-06-25T15:37:27.283Z,-79.00
2018-06-25T15:38:27.419Z,-79.00
2018-06-25T15:39:27.399Z,-79.00
2018-06-25T15:40:27.406Z,-80.00
2018-06-25T15:41:27.356Z,-80.00
2018-06-25T15:42:27.402Z,-79.00
2018-06-25T15:43:27.359Z,-78.00
2018-06-25T15:44:27.418Z,-79.00
2018-06-25T15:45:27.404Z,-79.00
2018-06-25T15:46:27.444Z,-79.00
2018-06-25T15:47:27.515Z,-78.00
2018-06-25T15:48:27.483Z,-79.00
2018-06-25T15:49:27.643Z,-79.00
2018-06-25T15:50:27.498Z,-79.00
2018-06-25T15:51:28.672Z,-79.00
2018-06-25T15:52:27.529Z,-79.00
2018-06-25T15:53:27.661Z,-79.00
2018-06-25T15:54:27.541Z,-79.00
2018-06-25T15:55:27.625Z,-79.00
2018-06-25T15:56:27.584Z,-80.00
2018-06-25T15:57:27.664Z,-79.00
2018-06-25T15:58:27.593Z,-79.00
2018-06-25T15:59:27.644Z,-79.00
2018-06-25T16:00:27.635Z,-79.00
2018-06-25T16:01:28.802Z,-79.00
2018-06-25T16:02:27.656Z,-79.00
2018-06-25T16:03:27.755Z,-78.00
2018-06-25T16:04:27.712Z,-78.00
2018-06-25T16:05:27.772Z,-79.00
2018-06-25T16:06:27.745Z,-79.00
2018-06-25T16:07:27.845Z,-79.00
2018-06-25T16:08:27.768Z,-79.00
2018-06-25T16:09:28.875Z,-79.00
2018-06-25T16:10:27.806Z,-79.00
2018-06-25T16:11:27.852Z,-79.00
2018-06-25T16:12:27.799Z,-79.00
2018-06-25T16:13:27.969Z,-78.00
2018-06-25T16:14:27.892Z,-78.00
2018-06-25T16:15:29.000Z,-79.00
2018-06-25T16:16:27.862Z,-79.00
2018-06-25T16:17:28.004Z,-78.00
2018-06-25T16:18:27.921Z,-79.00
2018-06-25T16:19:27.954Z,-78.00
2018-06-25T16:20:27.919Z,-79.00
2018-06-25T16:21:27.979Z,-79.00
2018-06-25T16:22:27.947Z,-78.00
2018-06-25T16:23:28.076Z,-78.00
2018-06-25T16:24:27.991Z,-79.00
2018-06-25T16:25:28.118Z,-78.00
2018-06-25T16:26:29.008Z,-78.00
2018-06-25T16:27:28.120Z,-78.00
2018-06-25T16:28:28.072Z,-79.00
2018-06-25T16:29:28.127Z,-79.00
2018-06-25T16:30:28.086Z,-79.00
2018-06-25T16:31:28.135Z,-78.00
2018-06-25T16:32:28.124Z,-78.00
2018-06-25T16:33:28.142Z,-78.00
2018-06-25T16:34:28.153Z,-79.00
2018-06-25T16:35:28.274Z,-78.00
2018-06-25T16:36:28.186Z,-79.00
2018-06-25T16:37:29.324Z,-78.00
2018-06-25T16:38:28.218Z,-79.00
2018-06-25T16:39:28.310Z,-79.00
2018-06-25T16:40:28.251Z,-78.00
2018-06-25T16:41:28.312Z,-78.00
2018-06-25T16:42:28.272Z,-78.00
2018-06-25T16:43:28.346Z,-79.00
2018-06-25T16:44:28.343Z,-79.00
2018-06-25T16:45:28.334Z,-78.00
2018-06-25T16:46:28.334Z,-79.00
2018-06-25T16:47:28.475Z,-78.00
2018-06-25T16:48:28.396Z,-78.00
2018-06-25T16:49:28.451Z,-78.00
2018-06-25T16:50:28.393Z,-78.00
2018-06-25T16:51:28.845Z,-79.00
2018-06-25T16:52:28.434Z,-79.00
2018-06-25T16:53:28.462Z,-79.00
2018-06-25T16:54:28.477Z,-79.00
2018-06-25T16:55:28.492Z,-79.00
2018-06-25T16:56:28.498Z,-79.00
2018-06-25T16:57:28.689Z,-78.00
2018-06-25T16:58:28.512Z,-78.00
2018-06-25T17:27:03.983Z,-77.00
2018-06-25T17:28:01.187Z,-76.00
2018-06-25T17:29:01.056Z,-77.00
2018-06-25T17:30:02.194Z,-76.00
2018-06-25T17:31:01.121Z,-77.00
2018-06-25T17:32:01.183Z,-78.00
2018-06-25T17:33:01.129Z,-78.00
2018-06-25T17:34:01.207Z,-77.00
2018-06-25T17:35:01.157Z,-76.00
2018-06-25T17:36:01.255Z,-78.00
2018-06-25T17:37:01.206Z,-77.00
2018-06-25T17:38:01.235Z,-78.00
2018-06-25T17:39:01.225Z,-78.00
2018-06-25T17:40:01.416Z,-78.00
2018-06-25T17:41:01.308Z,-77.00
2018-06-25T17:42:02.401Z,-77.00
2018-06-25T17:43:01.276Z,-77.00
2018-06-25T17:44:02.379Z,-78.00
2018-06-25T17:45:01.305Z,-78.00
2018-06-25T17:46:01.420Z,-78.00
2018-06-25T17:47:01.382Z,-78.00
2018-06-25T17:48:01.483Z,-78.00
2018-06-25T17:49:01.376Z,-78.00
2018-06-25T17:50:01.476Z,-78.00
2018-06-25T17:51:01.405Z,-78.00
2018-06-25T17:52:02.516Z,-78.00
2018-06-25T17:53:01.441Z,-78.00
2018-06-25T17:54:01.581Z,-78.00
2018-06-25T17:55:01.499Z,-78.00
2018-06-25T17:56:01.580Z,-78.00
2018-06-25T17:57:01.561Z,-78.00
2018-06-25T17:58:01.607Z,-77.00
2018-06-25T17:59:01.546Z,-78.00
2018-06-25T18:00:01.645Z,-77.00
2018-06-25T18:01:01.591Z,-78.00
2018-06-25T18:02:01.733Z,-78.00
2018-06-25T18:03:01.598Z,-78.00
2018-06-25T18:04:01.807Z,-78.00
2018-06-25T18:05:01.617Z,-78.00
2018-06-25T18:06:01.779Z,-78.00
2018-06-25T18:07:01.685Z,-78.00
2018-06-25T18:08:01.781Z,-78.00
2018-06-25T18:09:01.699Z,-78.00
2018-06-25T18:10:01.816Z,-78.00
2018-06-25T18:11:01.789Z,-78.00
2018-06-25T18:12:01.802Z,-77.00
2018-06-25T18:13:01.774Z,-78.00
2018-06-25T18:14:01.924Z,-78.00
2018-06-25T18:15:01.784Z,-78.00
2018-06-25T18:16:02.969Z,-78.00
2018-06-25T18:17:01.831Z,-78.00
2018-06-25T18:18:01.942Z,-78.00
2018-06-25T18:19:01.842Z,-78.00
2018-06-25T18:20:03.021Z,-78.00
2018-06-25T18:21:01.872Z,-78.00
2018-06-25T18:22:01.972Z,-78.00
2018-06-25T18:23:01.905Z,-78.00
2018-06-25T18:24:01.978Z,-78.00
2018-06-25T18:25:01.935Z,-78.00
2018-06-25T18:26:02.128Z,-78.00
2018-06-25T18:27:01.967Z,-78.00
2018-06-25T18:28:02.136Z,-78.00
2018-06-25T18:29:02.005Z,-78.00
2018-06-25T18:30:02.118Z,-78.00
2018-06-25T18:31:02.026Z,-78.00